createdAt,value
2018-07-23T00:00:18.023Z,8.80
2018-07-23T00:01:24.831Z,9.20
2018-07-23T00:02:31.539Z,9.90
2018-07-23T00:03:38.393Z,9.50
2018-07-23T00:04:45.267Z,9.40
2018-07-23T00:05:51.959Z,10.50
2018-07-23T00:06:58.679Z,9.90
2018-07-23T00:08:05.402Z,10.60
2018-07-23T00:09:12.103Z,9.70
2018-07-23T00:10:18.849Z,9.70
2018-07-23T00:11:25.639Z,9.70
2018-07-23T00:12:32.374Z,9.40
2018-07-23T00:13:39.110Z,9.10
2018-07-23T00:14:45.805Z,9.30
2018-07-23T00:15:52.518Z,9.50
2018-07-23T00:16:59.223Z,10.00
2018-07-23T00:18:06.011Z,9.70
2018-07-23T00:19:12.703Z,9.50
2018-07-23T00:20:19.434Z,9.00
2018-07-23T00:21:26.218Z,10.10
2018-07-23T00:22:32.939Z,10.20
2018-07-23T00:23:39.742Z,10.70
2018-07-23T00:24:46.495Z,10.90
2018-07-23T00:25:53.254Z,9.80
2018-07-23T00:27:00.073Z,9.60
2018-07-23T00:28:06.830Z,10.30
2018-07-23T00:29:13.511Z,10.70
2018-07-23T00:30:20.193Z,10.50
2018-07-23T00:31:26.906Z,10.10
2018-07-23T00:32:33.691Z,9.60
2018-07-23T00:33:40.587Z,10.80
2018-07-23T00:34:47.307Z,11.50
2018-07-23T00:35:54.087Z,9.90
2018-07-23T00:37:00.798Z,10.10
2018-07-23T00:38:07.542Z,9.40
2018-07-23T00:39:14.344Z,10.20
2018-07-23T00:40:21.046Z,10.10
2018-07-23T00:41:27.761Z,10.00
2018-07-23T00:42:34.530Z,9.30
2018-07-23T00:43:41.299Z,8.90
2018-07-23T00:44:48.108Z,9.70
2018-07-23T00:45:54.850Z,10.40
2018-07-23T00:47:01.574Z,9.70
2018-07-23T00:48:08.577Z,10.70
2018-07-23T00:49:15.547Z,9.20
2018-07-23T00:50:22.373Z,9.20
2018-07-23T00:51:29.102Z,9.50
2018-07-23T00:52:35.837Z,9.00
2018-07-23T00:53:42.580Z,10.30
2018-07-23T00:54:49.401Z,10.60
2018-07-23T00:55:56.093Z,9.80
2018-07-23T00:57:02.822Z,9.60
2018-07-23T00:58:09.582Z,9.20
2018-07-23T00:59:16.317Z,9.10
2018-07-23T01:00:23.126Z,9.40
2018-07-23T01:01:29.836Z,9.50
2018-07-23T01:02:36.594Z,9.80
2018-07-23T01:03:43.392Z,10.10
2018-07-23T01:04:50.471Z,9.40
2018-07-23T01:05:57.363Z,10.80
2018-07-23T01:07:04.075Z,9.80
2018-07-23T01:08:10.831Z,10.20
2018-07-23T01:09:17.587Z,9.60
2018-07-23T01:10:24.423Z,8.50
2018-07-23T01:11:31.138Z,9.30
2018-07-23T01:12:37.899Z,10.00
2018-07-23T01:13:44.735Z,9.90
2018-07-23T01:14:51.534Z,9.60
2018-07-23T01:15:58.258Z,9.20
2018-07-23T01:17:04.991Z,9.20
2018-07-23T01:18:11.807Z,11.10
2018-07-23T01:19:18.623Z,10.00
2018-07-23T01:20:25.471Z,10.00
2018-07-23T01:21:32.218Z,10.80
2018-07-23T01:22:39.098Z,9.30
2018-07-23T01:23:46.107Z,10.00
2018-07-23T01:24:52.845Z,9.50
2018-07-23T01:25:59.659Z,9.20
2018-07-23T01:27:06.374Z,8.80
2018-07-23T01:28:13.119Z,10.40
2018-07-23T01:29:19.927Z,8.80
2018-07-23T01:30:26.630Z,9.70
2018-07-23T01:31:33.471Z,9.60
2018-07-23T01:32:40.227Z,10.40
2018-07-23T01:33:46.986Z,10.10
2018-07-23T01:34:53.678Z,10.00
2018-07-23T01:36:00.418Z,10.20
2018-07-23T01:37:07.162Z,10.30
2018-07-23T01:38:14.030Z,11.20
2018-07-23T01:39:20.743Z,11.60
2018-07-23T01:40:27.502Z,9.30
2018-07-23T01:41:34.219Z,10.20
2018-07-23T01:42:41.111Z,12.90
2018-07-23T01:43:47.858Z,10.10
2018-07-23T01:44:54.589Z,10.80
2018-07-23T01:46:01.374Z,9.80
2018-07-23T01:47:08.169Z,10.20
2018-07-23T01:48:15.346Z,9.70
2018-07-23T01:49:22.099Z,9.90
2018-07-23T01:50:28.834Z,9.40
2018-07-23T01:51:35.570Z,10.10
2018-07-23T01:52:42.390Z,9.70
2018-07-23T01:53:49.139Z,10.00
2018-07-23T01:54:56.150Z,10.50
2018-07-23T01:56:02.913Z,9.20
2018-07-23T01:57:09.771Z,11.40
2018-07-23T01:58:16.491Z,10.90
2018-07-23T01:59:23.266Z,10.30
2018-07-23T02:00:29.991Z,11.30
2018-07-23T02:01:36.723Z,9.60
2018-07-23T02:02:43.493Z,9.30
2018-07-23T02:03:50.490Z,14.30
2018-07-23T02:04:57.214Z,9.80
2018-07-23T02:06:03.999Z,10.00
2018-07-23T02:07:10.803Z,11.20
2018-07-23T02:08:17.551Z,9.50
2018-07-23T02:09:24.299Z,10.40
2018-07-23T02:10:31.030Z,10.90
2018-07-23T02:11:37.766Z,9.50
2018-07-23T02:12:44.539Z,9.90
2018-07-23T02:13:51.286Z,9.10
2018-07-23T02:14:58.047Z,10.70
2018-07-23T02:16:04.774Z,9.80
2018-07-23T02:17:11.682Z,9.80
2018-07-23T02:18:18.454Z,12.10
2018-07-23T02:19:25.243Z,11.90
2018-07-23T02:20:32.067Z,8.80
2018-07-23T02:21:38.827Z,9.40
2018-07-23T02:22:45.543Z,9.90
2018-07-23T02:23:52.314Z,9.00
2018-07-23T02:24:59.144Z,10.30
2018-07-23T02:26:05.854Z,8.90
2018-07-23T02:27:12.599Z,9.70
2018-07-23T02:28:19.355Z,9.90
2018-07-23T02:29:26.060Z,9.70
2018-07-23T02:30:32.734Z,9.80
2018-07-23T02:30:58.579Z,9.70
2018-07-23T02:32:05.295Z,9.90
2018-07-23T02:33:12.015Z,10.10
2018-07-23T02:34:18.717Z,10.10
2018-07-23T02:35:25.506Z,10.10
2018-07-23T02:36:32.195Z,9.80
2018-07-23T02:37:38.871Z,8.90
2018-07-23T02:38:45.587Z,9.10
2018-07-23T02:39:52.363Z,9.40
2018-07-23T02:40:59.059Z,9.40
2018-07-23T02:42:05.757Z,9.50
2018-07-23T02:43:12.548Z,9.10
2018-07-23T02:44:19.235Z,11.20
2018-07-23T02:45:25.959Z,10.10
2018-07-23T02:46:32.647Z,9.70
2018-07-23T02:47:39.371Z,9.70
2018-07-23T02:48:46.091Z,8.90
2018-07-23T02:49:52.910Z,9.00
2018-07-23T02:50:59.582Z,9.60
2018-07-23T02:52:06.262Z,9.60
2018-07-23T02:53:13.053Z,9.50
2018-07-23T02:54:19.771Z,10.00
2018-07-23T02:55:26.476Z,9.60
2018-07-23T02:56:33.263Z,9.50
2018-07-23T02:57:39.967Z,10.50
2018-07-23T02:58:46.766Z,10.40
2018-07-23T02:59:53.480Z,11.30
2018-07-23T03:01:00.362Z,10.80
2018-07-23T03:02:07.108Z,10.30
2018-07-23T03:03:13.904Z,11.30
2018-07-23T03:04:20.691Z,10.10
2018-07-23T03:05:27.553Z,11.10
2018-07-23T03:06:34.267Z,10.40
2018-07-23T03:07:40.983Z,10.40
2018-07-23T03:08:47.687Z,11.60
2018-07-23T03:09:54.411Z,9.40
2018-07-23T03:11:01.216Z,10.60
2018-07-23T03:12:07.952Z,10.20
2018-07-23T03:13:15.015Z,11.00
2018-07-23T03:14:21.747Z,9.90
2018-07-23T03:15:28.462Z,10.20
2018-07-23T03:16:35.252Z,10.20
2018-07-23T03:17:41.923Z,11.20
2018-07-23T03:18:48.759Z,10.00
2018-07-23T03:19:55.619Z,10.40
2018-07-23T03:21:02.413Z,12.10
2018-07-23T03:22:09.222Z,11.00
2018-07-23T03:23:15.973Z,10.10
2018-07-23T03:24:22.714Z,9.80
2018-07-23T03:25:29.426Z,9.90
2018-07-23T03:26:36.103Z,10.30
2018-07-23T03:27:42.930Z,10.20
2018-07-23T03:28:49.675Z,10.70
2018-07-23T03:29:56.406Z,10.70
2018-07-23T03:31:03.119Z,10.50
2018-07-23T03:32:09.824Z,11.60
2018-07-23T03:33:16.646Z,12.50
2018-07-23T03:34:23.432Z,11.80
2018-07-23T03:35:30.197Z,12.60
2018-07-23T03:36:37.083Z,11.60
2018-07-23T03:37:43.823Z,13.80
2018-07-23T03:38:50.571Z,12.50
2018-07-23T03:39:57.334Z,15.50
2018-07-23T03:41:04.175Z,15.30
2018-07-23T03:42:10.911Z,12.70
2018-07-23T03:43:17.659Z,11.60
2018-07-23T03:44:24.419Z,10.20
2018-07-23T03:45:31.233Z,10.70
2018-07-23T03:46:37.955Z,10.20
2018-07-23T03:47:44.663Z,9.20
2018-07-23T03:48:51.438Z,10.80
2018-07-23T03:49:58.148Z,11.10
2018-07-23T03:51:04.962Z,10.30
2018-07-23T03:52:11.695Z,13.30
2018-07-23T03:53:18.401Z,10.30
2018-07-23T03:54:25.166Z,9.70
2018-07-23T03:55:31.880Z,10.70
2018-07-23T03:56:38.936Z,10.80
2018-07-23T03:57:45.690Z,10.20
2018-07-23T03:58:52.506Z,10.20
2018-07-23T03:59:59.218Z,10.50
2018-07-23T04:01:06.002Z,10.90
2018-07-23T04:02:12.731Z,10.20
2018-07-23T04:03:19.584Z,11.50
2018-07-23T04:04:26.406Z,11.50
2018-07-23T04:05:33.415Z,9.70
2018-07-23T04:06:40.142Z,10.00
2018-07-23T04:07:47.173Z,10.70
2018-07-23T04:08:53.947Z,10.40
2018-07-23T04:10:00.761Z,11.50
2018-07-23T04:11:07.918Z,12.80
2018-07-23T04:12:14.720Z,10.50
2018-07-23T04:13:21.426Z,11.10
2018-07-23T04:14:28.158Z,12.80
2018-07-23T04:15:34.915Z,10.70
2018-07-23T04:16:41.622Z,12.10
2018-07-23T04:17:48.466Z,13.60
2018-07-23T04:18:55.624Z,11.40
2018-07-23T04:20:02.564Z,11.70
2018-07-23T04:21:09.439Z,11.20
2018-07-23T04:22:16.175Z,11.70
2018-07-23T04:23:22.930Z,10.30
2018-07-23T04:24:29.674Z,10.50
2018-07-23T04:25:36.462Z,11.20
2018-07-23T04:26:43.162Z,11.70
2018-07-23T04:27:49.896Z,11.10
2018-07-23T04:28:56.636Z,12.70
2018-07-23T04:30:03.346Z,12.20
2018-07-23T04:31:10.244Z,11.40
2018-07-23T04:32:16.970Z,12.40
2018-07-23T04:33:23.676Z,13.20
2018-07-23T04:34:30.406Z,11.20
2018-07-23T04:35:37.055Z,11.40
2018-07-23T04:36:43.765Z,11.00
2018-07-23T04:37:50.614Z,10.70
2018-07-23T04:38:57.507Z,11.00
2018-07-23T04:40:04.207Z,11.90
2018-07-23T04:41:10.990Z,11.00
2018-07-23T04:42:17.751Z,11.10
2018-07-23T04:43:24.456Z,12.70
2018-07-23T04:44:31.247Z,10.30
2018-07-23T04:45:38.051Z,12.30
2018-07-23T04:46:44.722Z,13.10
2018-07-23T04:47:51.431Z,12.70
2018-07-23T04:48:58.148Z,10.70
2018-07-23T04:50:04.889Z,12.70
2018-07-23T04:51:11.607Z,11.70
2018-07-23T04:52:18.394Z,12.20
2018-07-23T04:53:25.083Z,13.80
2018-07-23T04:54:31.875Z,12.70
2018-07-23T04:55:38.577Z,14.60
2018-07-23T04:56:45.372Z,22.10
2018-07-23T04:57:52.087Z,22.80
2018-07-23T04:58:58.766Z,12.90
2018-07-23T05:00:05.783Z,16.20
2018-07-23T05:01:12.631Z,17.30
2018-07-23T05:02:19.379Z,15.80
2018-07-23T05:03:26.112Z,14.20
2018-07-23T05:04:32.827Z,13.80
2018-07-23T05:05:39.700Z,12.00
2018-07-23T05:06:46.439Z,12.40
2018-07-23T05:07:53.139Z,13.40
2018-07-23T05:08:59.855Z,13.80
2018-07-23T05:10:06.713Z,12.30
2018-07-23T05:11:13.405Z,12.10
2018-07-23T05:12:20.155Z,11.60
2018-07-23T05:13:26.871Z,15.00
2018-07-23T05:14:33.566Z,15.00
2018-07-23T05:15:40.265Z,12.70
2018-07-23T05:16:47.079Z,13.30
2018-07-23T05:17:53.772Z,15.00
2018-07-23T05:19:00.633Z,14.40
2018-07-23T05:20:07.376Z,15.30
2018-07-23T05:21:14.279Z,16.10
2018-07-23T05:22:20.979Z,13.50
2018-07-23T05:23:27.710Z,14.20
2018-07-23T05:24:34.474Z,13.50
2018-07-23T05:25:41.199Z,13.70
2018-07-23T05:26:47.895Z,13.10
2018-07-23T05:27:54.594Z,11.70
2018-07-23T05:29:01.332Z,12.10
2018-07-23T05:30:08.112Z,11.80
2018-07-23T05:31:14.939Z,12.60
2018-07-23T05:32:21.795Z,13.30
2018-07-23T05:33:28.486Z,13.70
2018-07-23T05:34:35.216Z,13.70
2018-07-23T05:35:42.024Z,11.80
2018-07-23T05:36:48.767Z,13.00
2018-07-23T05:37:55.506Z,12.80
2018-07-23T05:39:02.202Z,15.40
2018-07-23T05:40:09.090Z,13.60
2018-07-23T05:41:15.850Z,12.70
2018-07-23T05:42:22.594Z,12.20
2018-07-23T05:43:29.298Z,11.90
2018-07-23T05:44:36.009Z,12.20
2018-07-23T05:45:42.806Z,13.20
2018-07-23T05:46:49.516Z,13.30
2018-07-23T05:47:56.266Z,13.40
2018-07-23T05:49:03.000Z,14.80
2018-07-23T05:50:09.734Z,13.40
2018-07-23T05:51:16.535Z,16.40
2018-07-23T05:52:23.247Z,12.60
2018-07-23T05:53:29.950Z,12.70
2018-07-23T05:54:36.716Z,15.70
2018-07-23T05:55:43.450Z,13.00
2018-07-23T05:56:50.142Z,13.50
2018-07-23T05:57:56.932Z,14.30
2018-07-23T05:59:03.673Z,13.80
2018-07-23T06:00:10.450Z,13.70
2018-07-23T06:01:17.162Z,15.40
2018-07-23T06:02:24.022Z,17.00
2018-07-23T06:03:30.749Z,14.80
2018-07-23T06:04:37.543Z,14.80
2018-07-23T06:05:44.294Z,16.20
2018-07-23T06:06:51.161Z,14.70
2018-07-23T06:07:57.783Z,14.90
2018-07-23T06:09:04.511Z,14.20
2018-07-23T06:10:11.655Z,14.20
2018-07-23T06:11:18.354Z,15.10
2018-07-23T06:12:25.095Z,12.80
2018-07-23T06:13:31.862Z,14.60
2018-07-23T06:14:38.703Z,14.80
2018-07-23T06:15:45.428Z,15.80
2018-07-23T06:16:52.150Z,15.00
2018-07-23T06:17:58.875Z,15.10
2018-07-23T06:19:05.578Z,12.90
2018-07-23T06:20:12.463Z,13.80
2018-07-23T06:21:19.214Z,14.50
2018-07-23T06:22:25.995Z,15.40
2018-07-23T06:23:32.887Z,14.50
2018-07-23T06:24:40.022Z,14.00
2018-07-23T06:25:46.783Z,14.70
2018-07-23T06:26:53.519Z,14.00
2018-07-23T06:28:00.278Z,15.40
2018-07-23T06:29:07.142Z,15.00
2018-07-23T06:30:13.962Z,14.70
2018-07-23T06:31:20.725Z,15.20
2018-07-23T06:32:27.539Z,15.80
2018-07-23T06:33:34.251Z,15.70
2018-07-23T06:34:40.984Z,15.00
2018-07-23T06:35:47.702Z,16.10
2018-07-23T06:36:54.613Z,15.70
2018-07-23T06:38:01.359Z,16.00
2018-07-23T06:39:08.131Z,14.90
2018-07-23T06:40:15.076Z,15.20
2018-07-23T06:41:21.856Z,16.20
2018-07-23T06:42:28.580Z,15.40
2018-07-23T06:43:35.499Z,17.50
2018-07-23T06:44:42.238Z,17.80
2018-07-23T06:45:49.062Z,17.60
2018-07-23T06:46:55.959Z,19.20
2018-07-23T06:48:03.012Z,18.50
2018-07-23T06:49:09.763Z,17.00
2018-07-23T06:50:16.535Z,21.40
2018-07-23T06:51:23.338Z,16.70
2018-07-23T06:52:30.178Z,17.80
2018-07-23T06:53:36.898Z,19.10
2018-07-23T06:54:43.634Z,17.80
2018-07-23T06:55:50.650Z,19.00
2018-07-23T06:56:57.382Z,18.80
2018-07-23T06:58:04.148Z,17.70
2018-07-23T06:59:10.882Z,17.60
2018-07-23T07:00:17.720Z,17.20
2018-07-23T07:01:24.523Z,17.30
2018-07-23T07:02:36.451Z,18.30
2018-07-23T07:03:38.171Z,19.30
2018-07-23T07:04:44.998Z,17.60
2018-07-23T07:05:51.949Z,17.90
2018-07-23T07:06:58.677Z,17.00
2018-07-23T07:08:05.423Z,20.40
2018-07-23T07:09:12.174Z,20.50
2018-07-23T07:10:18.994Z,18.80
2018-07-23T07:11:25.760Z,20.10
2018-07-23T07:12:32.516Z,18.70
2018-07-23T07:13:39.363Z,20.70
2018-07-23T07:14:46.079Z,19.40
2018-07-23T07:15:52.908Z,17.80
2018-07-23T07:16:59.842Z,17.00
2018-07-23T07:18:06.590Z,17.00
2018-07-23T07:19:13.316Z,16.70
2018-07-23T07:20:20.063Z,16.60
2018-07-23T07:21:26.914Z,16.50
2018-07-23T07:22:33.610Z,16.90
2018-07-23T07:23:40.378Z,16.70
2018-07-23T07:24:47.090Z,16.40
2018-07-23T07:25:53.823Z,16.10
2018-07-23T07:27:00.609Z,15.30
2018-07-23T07:28:07.356Z,16.40
2018-07-23T07:29:14.084Z,16.80
2018-07-23T07:30:20.838Z,16.10
2018-07-23T07:31:27.568Z,15.90
2018-07-23T07:32:35.301Z,16.50
2018-07-23T07:33:41.112Z,15.30
2018-07-23T07:34:47.909Z,14.50
2018-07-23T07:35:54.620Z,15.90
2018-07-23T07:37:01.415Z,16.70
2018-07-23T07:38:08.344Z,16.00
2018-07-23T07:39:15.011Z,15.30
2018-07-23T07:40:21.858Z,15.40
2018-07-23T07:41:28.579Z,14.90
2018-07-23T07:42:35.295Z,15.40
2018-07-23T07:43:42.063Z,16.50
2018-07-23T07:44:49.066Z,15.60
2018-07-23T07:45:55.791Z,15.10
2018-07-23T07:47:02.518Z,15.70
2018-07-23T07:48:09.502Z,15.00
2018-07-23T07:49:16.214Z,13.70
2018-07-23T07:50:22.920Z,16.70
2018-07-23T07:51:29.643Z,13.70
2018-07-23T07:52:36.442Z,15.50
2018-07-23T07:53:43.143Z,16.30
2018-07-23T07:54:49.850Z,15.30
2018-07-23T07:55:56.584Z,15.50
2018-07-23T07:57:03.277Z,14.10
2018-07-23T07:58:10.145Z,12.90
2018-07-23T07:59:16.874Z,15.60
2018-07-23T08:00:23.602Z,14.70
2018-07-23T08:01:30.442Z,14.40
2018-07-23T08:02:37.208Z,13.00
2018-07-23T08:03:43.911Z,13.50
2018-07-23T08:04:50.668Z,13.20
2018-07-23T08:05:57.459Z,14.70
2018-07-23T08:07:04.198Z,15.00
2018-07-23T08:08:10.927Z,12.40
2018-07-23T08:09:17.613Z,13.40
2018-07-23T08:10:24.364Z,13.00
2018-07-23T08:11:31.091Z,12.80
2018-07-23T08:12:37.997Z,13.10
2018-07-23T08:13:44.699Z,12.50
2018-07-23T08:14:51.528Z,12.60
2018-07-23T08:15:58.450Z,12.50
2018-07-23T08:17:05.129Z,12.10
2018-07-23T08:18:12.207Z,12.50
2018-07-23T08:19:18.919Z,12.50
2018-07-23T08:20:25.638Z,11.80
2018-07-23T08:21:32.387Z,11.30
2018-07-23T08:22:39.113Z,12.40
2018-07-23T08:23:45.939Z,11.70
2018-07-23T08:24:52.651Z,12.70
2018-07-23T08:25:59.406Z,12.20
2018-07-23T08:27:06.123Z,11.50
2018-07-23T08:28:12.867Z,12.80
2018-07-23T08:29:19.678Z,11.50
2018-07-23T08:30:26.386Z,11.20
2018-07-23T08:31:33.201Z,12.20
2018-07-23T08:32:39.841Z,11.10
2018-07-23T08:33:46.603Z,11.30
2018-07-23T08:34:53.462Z,11.10
2018-07-23T08:36:00.206Z,11.00
2018-07-23T08:37:07.350Z,11.20
2018-07-23T08:38:14.218Z,11.70
2018-07-23T08:39:21.064Z,11.60
2018-07-23T08:40:27.849Z,12.20
2018-07-23T08:41:34.735Z,10.90
2018-07-23T08:42:41.539Z,10.60
2018-07-23T08:43:48.369Z,11.20
2018-07-23T08:44:55.205Z,13.30
2018-07-23T08:46:02.118Z,12.00
2018-07-23T08:47:08.988Z,11.10
2018-07-23T08:48:15.775Z,11.00
2018-07-23T08:49:22.563Z,11.20
2018-07-23T08:50:29.312Z,10.80
2018-07-23T08:51:36.249Z,11.70
2018-07-23T08:52:43.031Z,11.00
2018-07-23T08:53:49.776Z,10.30
2018-07-23T08:54:56.601Z,11.10
2018-07-23T08:56:03.441Z,10.30
2018-07-23T08:57:10.243Z,11.00
2018-07-23T08:58:17.062Z,10.00
2018-07-23T08:59:24.931Z,11.70
2018-07-23T09:00:30.693Z,10.70
2018-07-23T09:01:37.483Z,10.40
2018-07-23T09:02:44.257Z,10.30
2018-07-23T09:03:51.216Z,9.90
2018-07-23T09:04:57.909Z,9.30
2018-07-23T09:06:04.718Z,10.00
2018-07-23T09:07:11.519Z,9.70
2018-07-23T09:08:18.342Z,10.70
2018-07-23T09:09:25.093Z,9.90
2018-07-23T09:10:31.804Z,9.50
2018-07-23T09:11:38.624Z,9.90
2018-07-23T09:12:45.518Z,8.90
2018-07-23T09:13:52.538Z,9.20
2018-07-23T09:14:59.322Z,10.00
2018-07-23T09:16:06.219Z,8.50
2018-07-23T09:17:13.092Z,9.10
2018-07-23T09:18:19.825Z,9.10
2018-07-23T09:19:26.622Z,8.60
2018-07-23T09:20:33.356Z,11.50
2018-07-23T09:21:40.094Z,9.40
2018-07-23T09:22:46.798Z,9.60
2018-07-23T09:23:53.647Z,8.50
2018-07-23T09:25:00.371Z,8.00
2018-07-23T09:26:07.604Z,8.40
2018-07-23T09:27:14.353Z,8.80
2018-07-23T09:28:21.133Z,8.30
2018-07-23T09:29:27.875Z,8.50
2018-07-23T09:30:34.627Z,11.10
2018-07-23T09:31:41.640Z,8.80
2018-07-23T09:32:48.342Z,8.90
2018-07-23T09:33:55.082Z,9.60
2018-07-23T09:35:01.804Z,9.40
2018-07-23T09:36:08.583Z,8.90
2018-07-23T09:37:15.419Z,10.20
2018-07-23T09:38:22.021Z,8.50
2018-07-23T09:39:29.003Z,9.30
2018-07-23T09:40:35.702Z,9.70
2018-07-23T09:41:42.444Z,8.70
2018-07-23T09:42:49.159Z,9.00
2018-07-23T09:43:55.849Z,9.20
2018-07-23T09:45:02.559Z,8.00
2018-07-23T09:46:09.328Z,7.20
2018-07-23T09:47:16.059Z,7.80
2018-07-23T09:48:23.070Z,8.30
2018-07-23T09:49:29.768Z,8.60
2018-07-23T09:50:36.481Z,9.80
2018-07-23T09:51:43.266Z,8.60
2018-07-23T09:52:49.982Z,9.00
2018-07-23T09:53:57.043Z,8.30
2018-07-23T09:55:03.762Z,7.90
2018-07-23T09:56:10.560Z,7.80
2018-07-23T09:57:17.281Z,8.60
2018-07-23T09:58:23.995Z,8.10
2018-07-23T09:59:30.711Z,7.40
2018-07-23T10:00:37.448Z,8.40
2018-07-23T10:01:44.299Z,8.30
2018-07-23T10:02:51.016Z,7.80
2018-07-23T10:03:58.061Z,8.20
2018-07-23T10:05:04.783Z,8.20
2018-07-23T10:06:11.633Z,7.70
2018-07-23T10:07:18.475Z,8.00
2018-07-23T10:08:25.155Z,8.10
2018-07-23T10:09:31.907Z,6.90
2018-07-23T10:10:38.630Z,6.90
2018-07-23T10:11:45.360Z,5.90
2018-07-23T10:12:52.157Z,7.80
2018-07-23T10:13:58.861Z,9.20
2018-07-23T10:15:05.595Z,5.90
2018-07-23T10:16:12.342Z,6.60
2018-07-23T10:17:19.075Z,6.40
2018-07-23T10:18:25.854Z,6.40
2018-07-23T10:19:32.707Z,6.60
2018-07-23T10:20:39.447Z,6.90
2018-07-23T10:21:46.319Z,6.80
2018-07-23T10:22:53.052Z,6.70
2018-07-23T10:23:59.766Z,7.70
2018-07-23T10:25:06.549Z,5.50
2018-07-23T10:26:13.394Z,6.30
2018-07-23T10:27:20.160Z,5.40
2018-07-23T10:28:26.906Z,7.20
2018-07-23T10:29:33.661Z,5.70
2018-07-23T10:30:40.442Z,6.60
2018-07-23T10:31:47.240Z,7.00
2018-07-23T10:32:53.971Z,6.40
2018-07-23T10:34:00.726Z,5.90
2018-07-23T10:35:07.573Z,6.70
2018-07-23T10:36:14.302Z,5.90
2018-07-23T10:37:21.087Z,6.80
2018-07-23T10:38:27.985Z,7.00
2018-07-23T10:39:34.695Z,6.50
2018-07-23T10:40:41.523Z,6.40
2018-07-23T10:41:48.396Z,6.30
2018-07-23T10:42:55.102Z,6.20
2018-07-23T10:44:02.189Z,5.60
2018-07-23T10:45:08.949Z,5.20
2018-07-23T10:46:15.707Z,4.60
2018-07-23T10:47:22.574Z,4.60
2018-07-23T10:48:29.406Z,4.30
2018-07-23T10:49:36.187Z,6.40
2018-07-23T10:50:43.091Z,5.00
2018-07-23T10:51:49.878Z,5.10
2018-07-23T10:52:56.587Z,4.50
2018-07-23T10:54:03.307Z,4.50
2018-07-23T10:55:10.088Z,5.30
2018-07-23T10:56:16.857Z,4.80
2018-07-23T10:57:23.647Z,5.80
2018-07-23T10:58:30.399Z,7.10
2018-07-23T10:59:37.158Z,6.80
2018-07-23T11:00:43.906Z,6.00
2018-07-23T11:01:50.610Z,6.20
2018-07-23T11:02:57.364Z,5.10
2018-07-23T11:04:04.098Z,6.20
2018-07-23T11:05:10.876Z,5.80
2018-07-23T11:06:17.657Z,4.80
2018-07-23T11:07:24.446Z,5.40
2018-07-23T11:08:31.444Z,5.30
2018-07-23T11:09:38.186Z,5.80
2018-07-23T11:10:44.905Z,5.90
2018-07-23T11:11:51.733Z,5.50
2018-07-23T11:12:58.542Z,5.00
2018-07-23T11:14:05.305Z,7.10
2018-07-23T11:15:12.030Z,4.90
2018-07-23T11:16:18.810Z,4.60
2018-07-23T11:17:25.527Z,3.90
2018-07-23T11:18:32.263Z,3.60
2018-07-23T11:19:39.009Z,4.00
2018-07-23T11:20:45.734Z,6.20
2018-07-23T11:21:52.546Z,4.60
2018-07-23T11:22:59.306Z,4.30
2018-07-23T11:24:06.128Z,4.60
2018-07-23T11:25:38.595Z,5.60
2018-07-23T11:26:19.684Z,4.40
2018-07-23T11:27:26.431Z,4.20
2018-07-23T11:28:33.201Z,5.00
2018-07-23T11:29:40.133Z,4.70
2018-07-23T11:30:46.839Z,5.20
2018-07-23T11:31:53.599Z,4.80
2018-07-23T11:33:00.341Z,4.80
2018-07-23T11:34:07.449Z,6.00
2018-07-23T11:35:14.294Z,7.00
2018-07-23T11:36:21.078Z,6.10
2018-07-23T11:37:27.983Z,5.50
2018-07-23T11:38:34.743Z,6.00
2018-07-23T11:39:41.463Z,5.60
2018-07-23T11:40:48.227Z,5.70
2018-07-23T11:41:55.018Z,5.90
2018-07-23T11:43:01.799Z,5.10
2018-07-23T11:44:08.725Z,5.10
2018-07-23T11:45:15.494Z,5.80
2018-07-23T11:46:24.987Z,7.60
2018-07-23T11:47:29.390Z,6.50
2018-07-23T11:48:36.154Z,7.00
2018-07-23T11:49:42.928Z,5.40
2018-07-23T11:50:49.715Z,5.40
2018-07-23T11:51:56.457Z,5.60
2018-07-23T11:53:03.191Z,5.80
2018-07-23T11:54:09.919Z,5.20
2018-07-23T11:55:16.666Z,5.40
2018-07-23T11:56:23.424Z,6.40
2018-07-23T11:57:30.247Z,5.80
2018-07-23T11:58:37.002Z,6.30
2018-07-23T11:59:43.733Z,5.60
2018-07-23T12:00:50.454Z,5.40
2018-07-23T12:01:57.388Z,6.40
2018-07-23T12:03:04.518Z,5.60
2018-07-23T12:04:11.264Z,5.70
2018-07-23T12:05:18.027Z,6.10
2018-07-23T12:06:24.798Z,6.20
2018-07-23T12:07:31.642Z,5.80
2018-07-23T12:08:38.420Z,5.40
2018-07-23T12:09:45.192Z,5.60
2018-07-23T12:10:51.962Z,5.60
2018-07-23T12:11:58.685Z,7.30
2018-07-23T12:13:05.492Z,5.30
2018-07-23T12:14:12.502Z,5.30
2018-07-23T12:15:19.215Z,5.90
2018-07-23T12:16:25.980Z,5.30
2018-07-23T12:17:32.757Z,5.60
2018-07-23T12:18:39.603Z,5.40
2018-07-23T12:19:46.382Z,6.00
2018-07-23T12:20:53.097Z,6.00
2018-07-23T12:21:59.825Z,6.10
2018-07-23T12:23:06.968Z,5.30
2018-07-23T12:24:13.703Z,5.80
2018-07-23T12:25:20.498Z,8.60
2018-07-23T12:26:27.237Z,6.80
2018-07-23T12:27:33.973Z,6.00
2018-07-23T12:28:40.706Z,7.70
2018-07-23T12:29:47.395Z,5.30
2018-07-23T12:30:54.395Z,5.80
2018-07-23T12:32:01.146Z,5.70
2018-07-23T12:33:07.869Z,7.20
2018-07-23T12:34:14.564Z,8.00
2018-07-23T12:35:21.359Z,6.70
2018-07-23T12:36:28.157Z,7.80
2018-07-23T12:37:34.905Z,7.60
2018-07-23T12:38:41.627Z,8.50
2018-07-23T12:39:48.410Z,6.90
2018-07-23T12:40:55.111Z,6.30
2018-07-23T12:42:01.809Z,8.00
2018-07-23T12:43:08.635Z,6.20
2018-07-23T12:44:15.371Z,7.20
2018-07-23T12:45:22.071Z,6.50
2018-07-23T12:46:28.862Z,6.00
2018-07-23T12:47:35.573Z,6.10
2018-07-23T12:48:42.311Z,6.50
2018-07-23T12:49:49.017Z,6.70
2018-07-23T12:50:55.752Z,6.40
2018-07-23T12:52:02.469Z,11.30
2018-07-23T12:53:09.250Z,6.60
2018-07-23T12:54:15.953Z,5.70
2018-07-23T12:55:22.655Z,6.00
2018-07-23T12:56:29.373Z,6.00
2018-07-23T12:57:36.555Z,6.00
2018-07-23T12:58:43.288Z,6.20
2018-07-23T12:59:50.027Z,5.70
2018-07-23T13:00:56.798Z,6.40
2018-07-23T13:02:03.515Z,7.70
2018-07-23T13:03:10.343Z,7.50
2018-07-23T13:04:17.043Z,6.00
2018-07-23T13:05:23.754Z,6.00
2018-07-23T13:06:30.910Z,6.00
2018-07-23T13:07:37.730Z,7.50
2018-07-23T13:08:44.451Z,6.50
2018-07-23T13:09:51.188Z,5.00
2018-07-23T13:10:57.870Z,5.60
2018-07-23T13:12:04.594Z,6.10
2018-07-23T13:13:11.518Z,6.20
2018-07-23T13:14:18.260Z,5.60
2018-07-23T13:15:24.986Z,5.80
2018-07-23T13:16:31.678Z,5.70
2018-07-23T13:17:38.438Z,5.60
2018-07-23T13:18:45.259Z,5.70
2018-07-23T13:19:51.995Z,6.10
2018-07-23T13:20:58.755Z,6.30
2018-07-23T13:22:05.487Z,6.30
2018-07-23T13:23:12.210Z,6.60
2018-07-23T13:24:18.981Z,6.20
2018-07-23T13:25:25.714Z,6.30
2018-07-23T13:26:32.457Z,6.80
2018-07-23T13:27:39.148Z,6.00
2018-07-23T13:28:45.910Z,6.40
2018-07-23T13:29:52.756Z,6.30
2018-07-23T13:30:59.455Z,6.00
2018-07-23T13:32:06.215Z,6.50
2018-07-23T13:33:12.969Z,6.40
2018-07-23T13:34:19.668Z,6.50
2018-07-23T13:35:26.620Z,7.20
2018-07-23T13:36:33.321Z,6.40
2018-07-23T13:37:40.091Z,6.50
2018-07-23T13:38:46.854Z,8.10
2018-07-23T13:39:53.655Z,6.20
2018-07-23T13:41:00.374Z,7.00
2018-07-23T13:42:07.155Z,6.50
2018-07-23T13:43:13.990Z,6.10
2018-07-23T13:44:20.786Z,6.00
2018-07-23T13:45:27.491Z,5.80
2018-07-23T13:46:34.207Z,6.40
2018-07-23T13:47:40.917Z,6.80
2018-07-23T13:48:47.652Z,6.80
2018-07-23T13:49:54.354Z,5.60
2018-07-23T13:51:01.079Z,5.80
2018-07-23T13:52:07.921Z,5.40
2018-07-23T13:53:14.647Z,5.80
2018-07-23T13:54:21.433Z,6.20
2018-07-23T13:55:28.127Z,5.70
2018-07-23T13:56:34.853Z,5.30
2018-07-23T13:57:41.712Z,5.70
2018-07-23T13:58:48.500Z,5.70
2018-07-23T13:59:55.318Z,5.90
2018-07-23T14:01:02.023Z,6.10
2018-07-23T14:02:08.814Z,5.80
2018-07-23T14:03:15.591Z,5.20
2018-07-23T14:04:22.295Z,6.20
2018-07-23T14:05:29.070Z,6.20
2018-07-23T14:06:35.963Z,6.10
2018-07-23T14:07:42.616Z,12.60
2018-07-23T14:08:49.399Z,7.80
2018-07-23T14:09:56.117Z,12.00
2018-07-23T14:11:02.879Z,9.10
2018-07-23T14:12:09.749Z,5.70
2018-07-23T14:13:16.705Z,5.70
2018-07-23T14:14:23.603Z,6.40
2018-07-23T14:15:30.386Z,5.80
2018-07-23T14:16:37.263Z,6.20
2018-07-23T14:17:44.224Z,6.50
2018-07-23T14:18:51.240Z,6.10
2018-07-23T14:19:58.116Z,6.30
2018-07-23T14:21:05.034Z,6.10
2018-07-23T14:22:11.811Z,5.90
2018-07-23T14:23:18.839Z,5.50
2018-07-23T14:24:25.633Z,5.70
2018-07-23T14:25:32.532Z,5.80
2018-07-23T14:26:39.479Z,6.20
2018-07-23T14:27:46.359Z,5.60
2018-07-23T14:28:53.218Z,5.70
2018-07-23T14:30:00.129Z,6.30
2018-07-23T14:31:07.048Z,5.70
2018-07-23T14:32:13.830Z,5.90
2018-07-23T14:33:20.608Z,5.80